createdAt,value
2022-08-05T00:03:57.856Z,101113.88
2022-08-05T00:08:54.460Z,101106.53
2022-08-05T00:13:53.174Z,101113.28
2022-08-05T00:18:49.982Z,101107.88
2022-08-05T00:24:05.058Z,101107.94
2022-08-05T00:29:04.832Z,101101.97
2022-08-05T00:34:56.203Z,101104.25
2022-08-05T00:39:18.885Z,101097.81
2022-08-05T00:44:15.557Z,101100.50
2022-08-05T00:49:14.052Z,101097.72
2022-08-05T00:54:11.600Z,101091.13
2022-08-05T00:59:08.923Z,101087.53
2022-08-05T01:04:13.551Z,101090.84
2022-08-05T01:09:11.124Z,101094.19
2022-08-05T01:14:15.439Z,101088.09
2022-08-05T01:19:19.988Z,101095.03
2022-08-05T01:24:23.348Z,101091.81
2022-08-05T01:29:24.901Z,101091.47
2022-08-05T01:34:26.917Z,101087.09
2022-08-05T01:39:46.816Z,101087.78
2022-08-05T01:44:42.913Z,101093.34
2022-08-05T01:50:00.520Z,101092.84
2022-08-05T01:55:01.301Z,101093.88
2022-08-05T02:00:03.422Z,101083.53
2022-08-05T02:05:01.285Z,101086.44
2022-08-05T02:10:00.529Z,101092.31
2022-08-05T02:15:02.977Z,101090.81
2022-08-05T02:20:03.286Z,101089.44
2022-08-05T02:25:02.448Z,101087.75
2022-08-05T02:30:01.110Z,101089.66
2022-08-05T02:34:58.939Z,101089.44
2022-08-05T02:40:01.264Z,101091.50
2022-08-05T02:44:58.795Z,101090.16
2022-08-05T02:49:55.696Z,101091.09
2022-08-05T02:54:53.167Z,101098.53
2022-08-05T02:59:52.073Z,101085.03
2022-08-05T03:04:53.221Z,101093.09
2022-08-05T03:09:51.969Z,101096.47
2022-08-05T03:14:50.152Z,101101.25
2022-08-05T03:19:46.730Z,101103.66
2022-08-05T03:24:47.742Z,101110.06
2022-08-05T03:30:07.369Z,101110.41
2022-08-05T03:35:06.260Z,101111.97
2022-08-05T03:40:08.333Z,101112.13
2022-08-05T03:45:21.735Z,101108.56
2022-08-05T03:50:20.723Z,101110.59
2022-08-05T03:56:04.361Z,101109.69
2022-08-05T04:00:35.777Z,101120.88
2022-08-05T04:05:34.900Z,101105.69
2022-08-05T04:10:37.587Z,101109.41
2022-08-05T04:15:35.887Z,101109.06
2022-08-05T04:20:33.889Z,101105.00
2022-08-05T04:25:57.829Z,101106.53
2022-08-05T04:30:48.106Z,101095.72
2022-08-05T04:36:15.912Z,101109.91
2022-08-05T04:41:03.526Z,101109.84
2022-08-05T04:46:02.567Z,101104.28
2022-08-05T04:51:11.172Z,101108.72
2022-08-05T04:56:33.447Z,101096.84
2022-08-05T05:02:05.491Z,101100.75
2022-08-05T05:06:44.781Z,101101.97
2022-08-05T05:11:55.503Z,101109.56
2022-08-05T05:16:54.612Z,101104.03
2022-08-05T05:21:55.679Z,101095.59
2022-08-05T05:26:52.504Z,101097.75
2022-08-05T05:31:49.310Z,101104.31
2022-08-05T05:36:47.832Z,101102.31
2022-08-05T05:41:54.444Z,101095.34
2022-08-05T05:46:51.411Z,101096.75
2022-08-05T05:51:50.330Z,101096.53
2022-08-05T05:56:49.233Z,101096.91
2022-08-05T06:01:57.799Z,101097.41
2022-08-05T06:06:54.784Z,101095.16
2022-08-05T06:12:02.043Z,101097.22
2022-08-05T06:16:59.683Z,101098.78
2022-08-05T06:21:59.197Z,101098.97
2022-08-05T06:26:57.575Z,101098.94
2022-08-05T06:31:54.180Z,101098.50
2022-08-05T06:36:57.087Z,101087.63
2022-08-05T06:41:58.666Z,101090.84
2022-08-05T06:46:56.963Z,101099.03
2022-08-05T06:51:53.776Z,101093.78
2022-08-05T06:56:55.110Z,101091.56
2022-08-05T07:02:08.291Z,101103.00
2022-08-05T07:07:08.042Z,101097.75
2022-08-05T07:12:05.106Z,101102.41
2022-08-05T07:18:01.837Z,101085.44
2022-08-05T07:22:21.950Z,101091.13
2022-08-05T07:27:27.415Z,101090.69
2022-08-05T07:32:39.195Z,101091.25
2022-08-05T07:37:39.457Z,101090.66
2022-08-05T07:42:36.508Z,101091.31
2022-08-05T07:47:42.071Z,101089.41
2022-08-05T07:52:39.888Z,101084.72
2022-08-05T07:57:51.354Z,101088.50
2022-08-05T08:03:14.598Z,101087.97
2022-08-05T08:08:12.380Z,101083.28
2022-08-05T08:13:09.229Z,101092.03
2022-08-05T08:18:14.411Z,101093.22
2022-08-05T08:24:02.216Z,101092.22
2022-08-05T08:28:36.050Z,101076.69
2022-08-05T08:33:36.056Z,101082.03
2022-08-05T08:38:37.628Z,101079.78
2022-08-05T08:45:16.585Z,101071.53
2022-08-05T08:49:06.109Z,101065.31
2022-08-05T08:54:13.893Z,101055.81
2022-08-05T08:59:19.385Z,101054.63
2022-08-05T09:04:16.864Z,101062.09
2022-08-05T09:09:15.846Z,101054.38
2022-08-05T09:14:57.459Z,101037.75
2022-08-05T09:19:36.445Z,101038.19
2022-08-05T09:24:58.124Z,101032.28
2022-08-05T09:29:54.758Z,101023.94
2022-08-05T09:34:52.687Z,101028.84
2022-08-05T09:39:52.096Z,101015.13
2022-08-05T09:44:56.734Z,101020.28
2022-08-05T09:50:01.251Z,101010.31
2022-08-05T09:55:00.153Z,101005.41
2022-08-05T10:00:08.097Z,101003.66
2022-08-05T10:05:07.986Z,101004.84
2022-08-05T10:10:15.642Z,100996.13
2022-08-05T10:15:17.011Z,100999.28
2022-08-05T10:20:16.213Z,100988.28
2022-08-05T10:25:18.038Z,100983.50
2022-08-05T10:32:47.739Z,100986.00
2022-08-05T10:35:40.594Z,100971.66
2022-08-05T10:40:45.068Z,100978.31
2022-08-05T10:45:42.639Z,100966.56
2022-08-05T10:50:54.587Z,100954.69
2022-08-05T10:56:21.177Z,100949.75
2022-08-05T11:01:54.883Z,100947.19
2022-08-05T11:07:05.879Z,100944.09
2022-08-05T11:12:03.636Z,100938.00
2022-08-05T11:18:00.250Z,100931.75
2022-08-05T11:22:54.033Z,100927.63
2022-08-05T11:28:00.744Z,100921.16
2022-08-05T11:33:13.738Z,100924.88
2022-08-05T11:38:29.464Z,100905.97
2022-08-05T11:44:00.746Z,100913.28
2022-08-05T11:48:50.253Z,100914.22
2022-08-05T11:53:48.580Z,100907.41
2022-08-05T11:58:53.078Z,100908.31
2022-08-05T12:03:56.125Z,100910.63
2022-08-05T12:08:54.814Z,100908.75
2022-08-05T12:13:53.678Z,100902.34
2022-08-05T12:18:53.036Z,100899.22
2022-08-05T12:23:54.608Z,100896.06
2022-08-05T12:28:51.285Z,100892.13
2022-08-05T12:33:48.039Z,100890.69
2022-08-05T12:38:44.972Z,100882.53
2022-08-05T12:43:50.081Z,100877.09
2022-08-05T12:48:47.103Z,100882.09
2022-08-05T12:53:44.843Z,100875.16
2022-08-05T12:59:13.823Z,100877.88
2022-08-05T13:04:13.592Z,100874.56
2022-08-05T13:09:28.631Z,100869.63
2022-08-05T13:14:36.657Z,100864.59
2022-08-05T13:19:51.680Z,100859.63
2022-08-05T13:24:57.698Z,100857.63
2022-08-05T13:30:35.104Z,100841.66
2022-08-05T13:35:15.761Z,100844.16
2022-08-05T13:40:36.670Z,100845.03
2022-08-05T13:45:43.304Z,100833.41
2022-08-05T13:50:40.047Z,100830.13
2022-08-05T13:55:40.723Z,100828.91
2022-08-05T14:00:38.127Z,100810.66
2022-08-05T14:06:24.455Z,100816.69
2022-08-05T14:11:03.236Z,100806.06
2022-08-05T14:16:16.775Z,100801.78
2022-08-05T14:22:07.925Z,100799.53
2022-08-05T14:26:36.207Z,100796.63
2022-08-05T14:32:02.858Z,100791.47
2022-08-05T14:36:55.290Z,100788.06
2022-08-05T14:42:15.888Z,100787.97
2022-08-05T14:47:08.882Z,100777.78
2022-08-05T14:52:06.713Z,100784.50
2022-08-05T14:57:13.482Z,100766.19
2022-08-05T15:02:14.785Z,100768.75
2022-08-05T15:08:06.086Z,100767.69
2022-08-05T15:12:41.095Z,100766.47
2022-08-05T15:17:51.192Z,100759.09
2022-08-05T15:22:52.244Z,100761.00
2022-08-05T15:27:52.381Z,100758.22
2022-08-05T15:32:51.561Z,100743.50
2022-08-05T15:38:31.720Z,100760.16
2022-08-05T15:43:12.867Z,100755.78
2022-08-05T15:48:16.715Z,100744.00
2022-08-05T15:53:26.333Z,100752.53
2022-08-05T15:58:23.639Z,100749.31
2022-08-05T16:03:20.693Z,100750.19
2022-08-05T16:08:17.742Z,100743.75
2022-08-05T16:13:23.287Z,100746.34
2022-08-05T16:18:21.024Z,100742.13
2022-08-05T16:23:27.786Z,100742.09
2022-08-05T16:28:30.575Z,100736.59
2022-08-05T16:33:28.142Z,100740.88
2022-08-05T16:38:28.024Z,100739.50
2022-08-05T16:43:25.502Z,100738.44
2022-08-05T16:48:25.271Z,100741.16
2022-08-05T16:53:32.102Z,100742.75
2022-08-05T16:58:29.637Z,100743.06
2022-08-05T17:03:27.342Z,100755.16
2022-08-05T17:08:33.445Z,100754.13
2022-08-05T17:13:37.676Z,100756.84
2022-08-05T17:18:39.219Z,100753.28
2022-08-05T17:24:05.054Z,100749.03
2022-08-05T17:28:52.703Z,100754.28
2022-08-05T17:33:50.904Z,100752.97
2022-08-05T17:38:48.248Z,100759.91
2022-08-05T17:43:53.126Z,100764.72
2022-08-05T17:48:50.779Z,100769.31
2022-08-05T17:53:50.717Z,100760.75
2022-08-05T17:58:51.562Z,100770.47
2022-08-05T18:04:03.910Z,100771.56
2022-08-05T18:09:03.695Z,100766.53
2022-08-05T18:14:03.598Z,100790.84
2022-08-05T18:19:02.727Z,100791.72
2022-08-05T18:23:59.391Z,100793.41
2022-08-05T18:28:56.784Z,100796.97
2022-08-05T18:33:53.648Z,100798.34
2022-08-05T18:38:53.360Z,100799.94
2022-08-05T18:43:51.244Z,100807.84
2022-08-05T18:48:52.100Z,100804.41
2022-08-05T18:53:50.665Z,100808.38
2022-08-05T18:58:47.334Z,100822.13
2022-08-05T19:03:54.867Z,100814.03
2022-08-05T19:08:52.558Z,100817.34
2022-08-05T19:13:49.445Z,100817.66
2022-08-05T19:18:59.275Z,100816.38
2022-08-05T19:24:05.723Z,100817.22
2022-08-05T19:29:07.029Z,100811.81
2022-08-05T19:34:04.649Z,100809.94
2022-08-05T19:39:02.412Z,100807.53
2022-08-05T19:44:13.818Z,100809.19
2022-08-05T19:49:16.362Z,100816.50
2022-08-05T19:54:28.393Z,100817.63
2022-08-05T20:00:00.881Z,100822.47
2022-08-05T20:04:46.087Z,100817.56
2022-08-05T20:09:53.520Z,100818.09
2022-08-05T20:14:52.935Z,100805.53
2022-08-05T20:19:50.613Z,100805.75
2022-08-05T20:24:47.257Z,100813.66
2022-08-05T20:29:57.660Z,100803.38
2022-08-05T20:34:56.076Z,100808.03
2022-08-05T20:39:53.924Z,100797.06
2022-08-05T20:44:55.242Z,100805.72
2022-08-05T20:49:53.211Z,100795.72
2022-08-05T20:54:59.504Z,100792.63
2022-08-05T21:00:34.930Z,100797.44
2022-08-05T21:05:28.555Z,100792.25
2022-08-05T21:10:49.105Z,100790.13
2022-08-05T21:15:51.073Z,100781.34
2022-08-05T21:20:48.031Z,100785.94
2022-08-05T21:25:45.369Z,100792.19
2022-08-05T21:30:42.279Z,100786.78
2022-08-05T21:35:43.734Z,100793.53
2022-08-05T21:40:53.448Z,100791.66
2022-08-05T21:45:56.548Z,100785.72
2022-08-05T21:50:54.662Z,100782.28
2022-08-05T21:56:05.638Z,100780.50
2022-08-05T22:01:08.694Z,100784.91
2022-08-05T22:06:08.353Z,100794.34
2022-08-05T22:11:06.743Z,100790.63
2022-08-05T22:16:20.418Z,100786.50
2022-08-05T22:21:21.480Z,100792.44
2022-08-05T22:26:37.235Z,100791.13
2022-08-05T22:31:44.787Z,100775.72
2022-08-05T22:36:42.379Z,100780.81
2022-08-05T22:42:10.738Z,100780.81
2022-08-05T22:46:56.500Z,100773.19
2022-08-05T22:52:05.453Z,100775.28
2022-08-05T22:57:05.085Z,100770.88
2022-08-05T23:02:06.075Z,100771.63
2022-08-05T23:07:05.414Z,100777.94
2022-08-05T23:12:04.163Z,100773.63
2022-08-05T23:17:24.615Z,100776.78
2022-08-05T23:22:31.972Z,100774.53
2022-08-05T23:27:42.235Z,100771.53
2022-08-05T23:32:40.826Z,100777.66
2022-08-05T23:37:43.696Z,100770.75
2022-08-05T23:42:40.317Z,100772.84
2022-08-05T23:47:47.667Z,100763.25
2022-08-05T23:52:49.946Z,100771.66
2022-08-05T23:57:48.911Z,100762.91
